sensor_id;sensor_type;location;lat;lon;timestamp;temperature;humidity
19970;DHT22;10146;47.754;9.566;2023-09-30T00:00:14;16.60;99.90
19970;DHT22;10146;47.754;9.566;2023-09-30T00:02:40;16.70;99.90
19970;DHT22;10146;47.754;9.566;2023-09-30T00:05:07;16.60;99.90
19970;DHT22;10146;47.754;9.566;2023-09-30T00:07:33;16.60;99.90
19970;DHT22;10146;47.754;9.566;2023-09-30T00:10:00;16.70;99.90
19970;DHT22;10146;47.754;9.566;2023-09-30T00:12:26;16.70;99.90
19970;DHT22;10146;47.754;9.566;2023-09-30T00:14:52;16.70;99.90
19970;DHT22;10146;47.754;9.566;2023-09-30T00:17:18;16.70;99.90
19970;DHT22;10146;47.754;9.566;2023-09-30T00:19:44;16.70;99.90
19970;DHT22;10146;47.754;9.566;2023-09-30T00:22:10;16.70;99.90
19970;DHT22;10146;47.754;9.566;2023-09-30T00:24:36;16.70;99.90
19970;DHT22;10146;47.754;9.566;2023-09-30T00:27:01;16.70;99.90
19970;DHT22;10146;47.754;9.566;2023-09-30T00:29:27;16.70;99.90
19970;DHT22;10146;47.754;9.566;2023-09-30T00:31:53;16.60;99.90
19970;DHT22;10146;47.754;9.566;2023-09-30T00:34:18;16.60;99.90
19970;DHT22;10146;47.754;9.566;2023-09-30T00:36:44;16.60;99.90
19970;DHT22;10146;47.754;9.566;2023-09-30T00:39:09;16.60;99.90
19970;DHT22;10146;47.754;9.566;2023-09-30T00:41:38;16.70;99.90
19970;DHT22;10146;47.754;9.566;2023-09-30T00:44:04;16.60;99.90
19970;DHT22;10146;47.754;9.566;2023-09-30T00:46:31;16.60;99.90
19970;DHT22;10146;47.754;9.566;2023-09-30T00:48:58;16.60;99.90
19970;DHT22;10146;47.754;9.566;2023-09-30T00:51:25;16.50;99.90
19970;DHT22;10146;47.754;9.566;2023-09-30T00:53:52;16.50;99.90
19970;DHT22;10146;47.754;9.566;2023-09-30T00:56:22;16.50;99.90
19970;DHT22;10146;47.754;9.566;2023-09-30T00:58:48;16.40;99.90
19970;DHT22;10146;47.754;9.566;2023-09-30T01:01:16;16.40;99.90
19970;DHT22;10146;47.754;9.566;2023-09-30T01:03:42;16.30;99.90
19970;DHT22;10146;47.754;9.566;2023-09-30T01:06:08;16.30;99.90
19970;DHT22;10146;47.754;9.566;2023-09-30T01:08:35;16.30;99.90
19970;DHT22;10146;47.754;9.566;2023-09-30T01:11:01;16.30;99.90
19970;DHT22;10146;47.754;9.566;2023-09-30T01:13:33;16.30;99.90
19970;DHT22;10146;47.754;9.566;2023-09-30T01:16:06;16.30;99.90
19970;DHT22;10146;47.754;9.566;2023-09-30T01:18:32;16.40;99.90
19970;DHT22;10146;47.754;9.566;2023-09-30T01:21:02;16.30;99.90
19970;DHT22;10146;47.754;9.566;2023-09-30T01:23:30;16.30;99.90
19970;DHT22;10146;47.754;9.566;2023-09-30T01:25:55;16.20;99.90
19970;DHT22;10146;47.754;9.566;2023-09-30T01:28:21;16.20;99.90
19970;DHT22;10146;47.754;9.566;2023-09-30T01:30:47;16.30;99.90
19970;DHT22;10146;47.754;9.566;2023-09-30T01:33:12;16.40;99.90
19970;DHT22;10146;47.754;9.566;2023-09-30T01:35:38;16.30;99.90
19970;DHT22;10146;47.754;9.566;2023-09-30T01:38:03;16.30;99.90
19970;DHT22;10146;47.754;9.566;2023-09-30T01:40:30;16.40;99.90
19970;DHT22;10146;47.754;9.566;2023-09-30T01:42:56;16.30;99.90
19970;DHT22;10146;47.754;9.566;2023-09-30T01:45:22;16.30;99.90
19970;DHT22;10146;47.754;9.566;2023-09-30T01:47:47;16.30;99.90
19970;DHT22;10146;47.754;9.566;2023-09-30T01:50:13;16.30;99.90
19970;DHT22;10146;47.754;9.566;2023-09-30T01:52:38;16.30;99.90
19970;DHT22;10146;47.754;9.566;2023-09-30T01:55:04;16.30;99.90
19970;DHT22;10146;47.754;9.566;2023-09-30T01:57:30;16.40;99.90
19970;DHT22;10146;47.754;9.566;2023-09-30T01:59:55;16.40;99.90
19970;DHT22;10146;47.754;9.566;2023-09-30T02:02:21;16.30;99.90
19970;DHT22;10146;47.754;9.566;2023-09-30T02:04:47;16.30;99.90
19970;DHT22;10146;47.754;9.566;2023-09-30T02:07:12;16.30;99.90
19970;DHT22;10146;47.754;9.566;2023-09-30T02:09:38;16.20;99.90
19970;DHT22;10146;47.754;9.566;2023-09-30T02:12:04;16.20;99.90
19970;DHT22;10146;47.754;9.566;2023-09-30T02:14:30;16.20;99.90
19970;DHT22;10146;47.754;9.566;2023-09-30T02:16:56;16.20;99.90
19970;DHT22;10146;47.754;9.566;2023-09-30T02:19:22;16.20;99.90
19970;DHT22;10146;47.754;9.566;2023-09-30T02:21:48;16.20;99.90
19970;DHT22;10146;47.754;9.566;2023-09-30T02:24:14;16.20;99.90
19970;DHT22;10146;47.754;9.566;2023-09-30T02:26:40;16.10;99.90
19970;DHT22;10146;47.754;9.566;2023-09-30T02:29:06;16.10;99.90
19970;DHT22;10146;47.754;9.566;2023-09-30T02:31:33;16.20;99.90
19970;DHT22;10146;47.754;9.566;2023-09-30T02:33:59;16.10;99.90
19970;DHT22;10146;47.754;9.566;2023-09-30T02:36:24;16.10;99.90
19970;DHT22;10146;47.754;9.566;2023-09-30T02:38:50;16.20;99.90
19970;DHT22;10146;47.754;9.566;2023-09-30T02:41:16;16.10;99.90
19970;DHT22;10146;47.754;9.566;2023-09-30T02:43:42;16.10;99.90
19970;DHT22;10146;47.754;9.566;2023-09-30T02:46:08;16.20;99.90
19970;DHT22;10146;47.754;9.566;2023-09-30T02:48:34;16.10;99.90
19970;DHT22;10146;47.754;9.566;2023-09-30T02:50:59;16.10;99.90
19970;DHT22;10146;47.754;9.566;2023-09-30T02:53:25;16.10;99.90
19970;DHT22;10146;47.754;9.566;2023-09-30T02:55:50;16.10;99.90
19970;DHT22;10146;47.754;9.566;2023-09-30T02:58:22;16.10;99.90
19970;DHT22;10146;47.754;9.566;2023-09-30T03:00:48;16.10;99.90
19970;DHT22;10146;47.754;9.566;2023-09-30T03:03:14;16.00;99.90
19970;DHT22;10146;47.754;9.566;2023-09-30T03:05:40;15.90;99.90
19970;DHT22;10146;47.754;9.566;2023-09-30T03:08:05;16.00;99.90
19970;DHT22;10146;47.754;9.566;2023-09-30T03:10:31;16.00;99.90
19970;DHT22;10146;47.754;9.566;2023-09-30T03:12:57;16.00;99.90
19970;DHT22;10146;47.754;9.566;2023-09-30T03:15:28;16.00;99.90
19970;DHT22;10146;47.754;9.566;2023-09-30T03:17:56;16.00;99.90
19970;DHT22;10146;47.754;9.566;2023-09-30T03:20:22;16.10;99.90
19970;DHT22;10146;47.754;9.566;2023-09-30T03:22:51;16.00;99.90
19970;DHT22;10146;47.754;9.566;2023-09-30T03:25:18;16.10;99.90
19970;DHT22;10146;47.754;9.566;2023-09-30T03:27:44;16.00;99.90
19970;DHT22;10146;47.754;9.566;2023-09-30T03:30:12;15.90;99.90
19970;DHT22;10146;47.754;9.566;2023-09-30T03:32:38;16.00;99.90
19970;DHT22;10146;47.754;9.566;2023-09-30T03:35:05;16.00;99.90
19970;DHT22;10146;47.754;9.566;2023-09-30T03:37:33;16.00;99.90
19970;DHT22;10146;47.754;9.566;2023-09-30T03:39:58;16.00;99.90
19970;DHT22;10146;47.754;9.566;2023-09-30T03:42:24;16.00;99.90
19970;DHT22;10146;47.754;9.566;2023-09-30T03:44:50;15.90;99.90
19970;DHT22;10146;47.754;9.566;2023-09-30T03:47:18;15.90;99.90
19970;DHT22;10146;47.754;9.566;2023-09-30T03:49:43;16.00;99.90
19970;DHT22;10146;47.754;9.566;2023-09-30T03:52:10;16.00;99.90
19970;DHT22;10146;47.754;9.566;2023-09-30T03:54:36;15.90;99.90
19970;DHT22;10146;47.754;9.566;2023-09-30T03:57:03;16.00;99.90
19970;DHT22;10146;47.754;9.566;2023-09-30T03:59:29;16.00;99.90
19970;DHT22;10146;47.754;9.566;2023-09-30T04:01:56;16.00;99.90
19970;DHT22;10146;47.754;9.566;2023-09-30T04:04:23;16.00;99.90
19970;DHT22;10146;47.754;9.566;2023-09-30T04:06:49;16.00;99.90
19970;DHT22;10146;47.754;9.566;2023-09-30T04:09:17;16.00;99.90
19970;DHT22;10146;47.754;9.566;2023-09-30T04:11:43;16.00;99.90
19970;DHT22;10146;47.754;9.566;2023-09-30T04:14:09;16.00;99.90
19970;DHT22;10146;47.754;9.566;2023-09-30T04:16:35;16.00;99.90
19970;DHT22;10146;47.754;9.566;2023-09-30T04:19:03;15.90;99.90
19970;DHT22;10146;47.754;9.566;2023-09-30T04:21:28;15.90;99.90
19970;DHT22;10146;47.754;9.566;2023-09-30T04:23:55;15.90;99.90
19970;DHT22;10146;47.754;9.566;2023-09-30T04:26:22;16.00;99.90
19970;DHT22;10146;47.754;9.566;2023-09-30T04:28:47;16.00;99.90
19970;DHT22;10146;47.754;9.566;2023-09-30T04:31:13;16.00;99.90
19970;DHT22;10146;47.754;9.566;2023-09-30T04:33:39;16.00;99.90
19970;DHT22;10146;47.754;9.566;2023-09-30T04:36:08;16.00;99.90
19970;DHT22;10146;47.754;9.566;2023-09-30T04:38:35;16.00;99.90
19970;DHT22;10146;47.754;9.566;2023-09-30T04:41:03;16.00;99.90
19970;DHT22;10146;47.754;9.566;2023-09-30T04:43:29;16.00;99.90
19970;DHT22;10146;47.754;9.566;2023-09-30T04:45:55;16.00;99.90
19970;DHT22;10146;47.754;9.566;2023-09-30T04:48:23;16.00;99.90
19970;DHT22;10146;47.754;9.566;2023-09-30T04:50:48;16.00;99.90
19970;DHT22;10146;47.754;9.566;2023-09-30T04:53:14;16.00;99.90
19970;DHT22;10146;47.754;9.566;2023-09-30T04:55:43;15.90;99.90
19970;DHT22;10146;47.754;9.566;2023-09-30T04:58:08;15.90;99.90
19970;DHT22;10146;47.754;9.566;2023-09-30T05:00:34;15.90;99.90
19970;DHT22;10146;47.754;9.566;2023-09-30T05:03:00;15.90;99.90
19970;DHT22;10146;47.754;9.566;2023-09-30T05:05:26;15.90;99.90
19970;DHT22;10146;47.754;9.566;2023-09-30T05:07:52;15.90;99.90
19970;DHT22;10146;47.754;9.566;2023-09-30T05:10:18;15.90;99.90
19970;DHT22;10146;47.754;9.566;2023-09-30T05:12:44;15.90;99.90
19970;DHT22;10146;47.754;9.566;2023-09-30T05:15:14;15.90;99.90
19970;DHT22;10146;47.754;9.566;2023-09-30T05:17:41;15.90;99.90
19970;DHT22;10146;47.754;9.566;2023-09-30T05:20:09;15.90;99.90
19970;DHT22;10146;47.754;9.566;2023-09-30T05:22:36;15.90;99.90
19970;DHT22;10146;47.754;9.566;2023-09-30T05:25:02;15.90;99.90
19970;DHT22;10146;47.754;9.566;2023-09-30T05:27:28;15.90;99.90
19970;DHT22;10146;47.754;9.566;2023-09-30T05:29:53;15.90;99.90
19970;DHT22;10146;47.754;9.566;2023-09-30T05:32:21;15.90;99.90
19970;DHT22;10146;47.754;9.566;2023-09-30T05:34:47;15.90;99.90
19970;DHT22;10146;47.754;9.566;2023-09-30T05:37:13;15.90;99.90
19970;DHT22;10146;47.754;9.566;2023-09-30T05:39:39;15.90;99.90
19970;DHT22;10146;47.754;9.566;2023-09-30T05:42:05;16.00;99.90
19970;DHT22;10146;47.754;9.566;2023-09-30T05:44:32;15.90;99.90
19970;DHT22;10146;47.754;9.566;2023-09-30T05:46:58;15.90;99.90
19970;DHT22;10146;47.754;9.566;2023-09-30T05:49:25;15.90;99.90
19970;DHT22;10146;47.754;9.566;2023-09-30T05:51:51;15.90;99.90
19970;DHT22;10146;47.754;9.566;2023-09-30T05:54:17;16.00;99.90
19970;DHT22;10146;47.754;9.566;2023-09-30T05:56:42;16.00;99.90
19970;DHT22;10146;47.754;9.566;2023-09-30T05:59:09;16.00;99.90
19970;DHT22;10146;47.754;9.566;2023-09-30T06:01:35;16.00;99.90
19970;DHT22;10146;47.754;9.566;2023-09-30T06:04:01;16.00;99.90
19970;DHT22;10146;47.754;9.566;2023-09-30T06:06:28;16.00;99.90
19970;DHT22;10146;47.754;9.566;2023-09-30T06:08:59;16.00;99.90
19970;DHT22;10146;47.754;9.566;2023-09-30T06:11:25;16.00;99.90
19970;DHT22;10146;47.754;9.566;2023-09-30T06:13:57;16.10;99.90
19970;DHT22;10146;47.754;9.566;2023-09-30T06:16:29;16.10;99.90
19970;DHT22;10146;47.754;9.566;2023-09-30T06:18:57;16.10;99.90
19970;DHT22;10146;47.754;9.566;2023-09-30T06:21:24;16.20;99.90
19970;DHT22;10146;47.754;9.566;2023-09-30T06:23:50;16.20;99.90
19970;DHT22;10146;47.754;9.566;2023-09-30T06:26:19;16.20;99.90
19970;DHT22;10146;47.754;9.566;2023-09-30T06:28:46;16.30;99.90
19970;DHT22;10146;47.754;9.566;2023-09-30T06:31:13;16.30;99.90
19970;DHT22;10146;47.754;9.566;2023-09-30T06:33:39;16.30;99.90
19970;DHT22;10146;47.754;9.566;2023-09-30T06:36:12;16.30;99.90
19970;DHT22;10146;47.754;9.566;2023-09-30T06:38:41;16.40;99.90
19970;DHT22;10146;47.754;9.566;2023-09-30T06:41:15;16.40;99.90
19970;DHT22;10146;47.754;9.566;2023-09-30T06:43:41;16.40;99.90
19970;DHT22;10146;47.754;9.566;2023-09-30T06:46:07;16.40;99.90
19970;DHT22;10146;47.754;9.566;2023-09-30T06:48:35;16.50;99.90
19970;DHT22;10146;47.754;9.566;2023-09-30T06:51:01;16.50;99.90
19970;DHT22;10146;47.754;9.566;2023-09-30T06:53:27;16.60;99.90
19970;DHT22;10146;47.754;9.566;2023-09-30T06:55:53;16.60;99.90
19970;DHT22;10146;47.754;9.566;2023-09-30T06:58:18;16.60;99.90
19970;DHT22;10146;47.754;9.566;2023-09-30T07:00:51;16.60;99.90
19970;DHT22;10146;47.754;9.566;2023-09-30T07:03:17;16.70;99.90
19970;DHT22;10146;47.754;9.566;2023-09-30T07:05:45;16.60;99.90
19970;DHT22;10146;47.754;9.566;2023-09-30T07:08:10;16.60;99.90
19970;DHT22;10146;47.754;9.566;2023-09-30T07:10:36;16.80;99.90
19970;DHT22;10146;47.754;9.566;2023-09-30T07:13:05;16.80;99.90
19970;DHT22;10146;47.754;9.566;2023-09-30T07:15:32;16.80;99.90
19970;DHT22;10146;47.754;9.566;2023-09-30T07:17:57;16.90;99.90
19970;DHT22;10146;47.754;9.566;2023-09-30T07:20:23;16.90;99.90
19970;DHT22;10146;47.754;9.566;2023-09-30T07:22:49;16.90;99.90
19970;DHT22;10146;47.754;9.566;2023-09-30T07:25:14;16.90;99.90
19970;DHT22;10146;47.754;9.566;2023-09-30T07:27:43;16.90;99.90
19970;DHT22;10146;47.754;9.566;2023-09-30T07:30:09;17.00;99.90
19970;DHT22;10146;47.754;9.566;2023-09-30T07:32:37;17.10;99.90
19970;DHT22;10146;47.754;9.566;2023-09-30T07:35:03;17.10;99.90
19970;DHT22;10146;47.754;9.566;2023-09-30T07:37:29;17.20;99.90
19970;DHT22;10146;47.754;9.566;2023-09-30T07:39:54;17.30;99.90
19970;DHT22;10146;47.754;9.566;2023-09-30T07:42:20;17.40;99.90
19970;DHT22;10146;47.754;9.566;2023-09-30T07:44:47;17.50;99.90
19970;DHT22;10146;47.754;9.566;2023-09-30T07:47:14;17.60;99.90
19970;DHT22;10146;47.754;9.566;2023-09-30T07:49:40;17.60;99.90
19970;DHT22;10146;47.754;9.566;2023-09-30T07:52:05;17.60;99.90
19970;DHT22;10146;47.754;9.566;2023-09-30T07:54:31;17.60;99.90
19970;DHT22;10146;47.754;9.566;2023-09-30T07:56:57;17.70;99.90
19970;DHT22;10146;47.754;9.566;2023-09-30T07:59:23;17.80;99.90
19970;DHT22;10146;47.754;9.566;2023-09-30T08:01:48;17.90;99.90
19970;DHT22;10146;47.754;9.566;2023-09-30T08:04:14;18.00;99.90
19970;DHT22;10146;47.754;9.566;2023-09-30T08:06:40;18.10;99.90
19970;DHT22;10146;47.754;9.566;2023-09-30T08:09:05;18.10;99.90
19970;DHT22;10146;47.754;9.566;2023-09-30T08:11:36;18.20;99.90
19970;DHT22;10146;47.754;9.566;2023-09-30T08:14:05;18.30;99.90
19970;DHT22;10146;47.754;9.566;2023-09-30T08:16:36;18.50;99.90
19970;DHT22;10146;47.754;9.566;2023-09-30T08:19:02;18.50;99.90
19970;DHT22;10146;47.754;9.566;2023-09-30T08:21:29;18.60;99.90
19970;DHT22;10146;47.754;9.566;2023-09-30T08:23:54;18.70;99.90
19970;DHT22;10146;47.754;9.566;2023-09-30T08:26:20;18.70;99.90
19970;DHT22;10146;47.754;9.566;2023-09-30T08:28:46;18.60;99.90
19970;DHT22;10146;47.754;9.566;2023-09-30T08:31:11;18.60;99.90
19970;DHT22;10146;47.754;9.566;2023-09-30T08:33:37;18.50;99.90
19970;DHT22;10146;47.754;9.566;2023-09-30T08:36:05;18.20;99.90
19970;DHT22;10146;47.754;9.566;2023-09-30T08:38:39;18.20;99.90
19970;DHT22;10146;47.754;9.566;2023-09-30T08:41:06;18.10;99.90
19970;DHT22;10146;47.754;9.566;2023-09-30T08:43:37;18.30;99.90
19970;DHT22;10146;47.754;9.566;2023-09-30T08:46:04;18.30;99.90
19970;DHT22;10146;47.754;9.566;2023-09-30T08:48:32;18.40;99.90
19970;DHT22;10146;47.754;9.566;2023-09-30T08:50:59;18.50;99.90
19970;DHT22;10146;47.754;9.566;2023-09-30T08:53:25;18.60;99.90
19970;DHT22;10146;47.754;9.566;2023-09-30T08:55:54;18.70;99.90
19970;DHT22;10146;47.754;9.566;2023-09-30T08:58:24;18.80;99.90
19970;DHT22;10146;47.754;9.566;2023-09-30T09:00:51;18.80;99.90
19970;DHT22;10146;47.754;9.566;2023-09-30T09:03:18;18.70;99.90
19970;DHT22;10146;47.754;9.566;2023-09-30T09:05:44;18.80;99.90
19970;DHT22;10146;47.754;9.566;2023-09-30T09:08:10;18.90;99.90
19970;DHT22;10146;47.754;9.566;2023-09-30T09:10:35;19.00;99.90
19970;DHT22;10146;47.754;9.566;2023-09-30T09:13:04;19.00;99.90
19970;DHT22;10146;47.754;9.566;2023-09-30T09:15:30;19.00;99.90
19970;DHT22;10146;47.754;9.566;2023-09-30T09:17:56;19.10;99.90
19970;DHT22;10146;47.754;9.566;2023-09-30T09:20:23;19.20;99.90
19970;DHT22;10146;47.754;9.566;2023-09-30T09:22:54;19.40;99.90
19970;DHT22;10146;47.754;9.566;2023-09-30T09:25:24;19.50;99.90
19970;DHT22;10146;47.754;9.566;2023-09-30T09:27:53;19.60;99.90
19970;DHT22;10146;47.754;9.566;2023-09-30T09:30:24;19.70;99.90
19970;DHT22;10146;47.754;9.566;2023-09-30T09:35:27;19.70;99.90
19970;DHT22;10146;47.754;9.566;2023-09-30T09:40:24;19.80;99.90
19970;DHT22;10146;47.754;9.566;2023-09-30T09:42:51;19.80;99.90
19970;DHT22;10146;47.754;9.566;2023-09-30T09:45:24;19.80;99.90
19970;DHT22;10146;47.754;9.566;2023-09-30T09:47:50;19.90;99.90
19970;DHT22;10146;47.754;9.566;2023-09-30T09:50:18;19.90;99.90
19970;DHT22;10146;47.754;9.566;2023-09-30T09:52:51;19.80;99.90
19970;DHT22;10146;47.754;9.566;2023-09-30T09:55:19;19.90;99.90
19970;DHT22;10146;47.754;9.566;2023-09-30T09:57:46;19.90;99.90
19970;DHT22;10146;47.754;9.566;2023-09-30T10:00:21;20.00;99.90
19970;DHT22;10146;47.754;9.566;2023-09-30T10:02:49;20.00;99.90
19970;DHT22;10146;47.754;9.566;2023-09-30T10:05:16;20.00;99.90
19970;DHT22;10146;47.754;9.566;2023-09-30T10:08:13;20.00;99.90
19970;DHT22;10146;47.754;9.566;2023-09-30T10:10:40;20.10;99.90
19970;DHT22;10146;47.754;9.566;2023-09-30T10:13:06;20.20;99.90
19970;DHT22;10146;47.754;9.566;2023-09-30T10:18:09;20.50;99.90
19970;DHT22;10146;47.754;9.566;2023-09-30T10:20:37;20.50;99.90
19970;DHT22;10146;47.754;9.566;2023-09-30T10:26:14;20.30;99.90
19970;DHT22;10146;47.754;9.566;2023-09-30T10:28:44;20.40;99.90
19970;DHT22;10146;47.754;9.566;2023-09-30T10:38:54;20.60;99.90
19970;DHT22;10146;47.754;9.566;2023-09-30T10:46:49;20.80;99.90
19970;DHT22;10146;47.754;9.566;2023-09-30T10:49:36;20.90;99.90
19970;DHT22;10146;47.754;9.566;2023-09-30T10:52:04;20.90;99.90
19970;DHT22;10146;47.754;9.566;2023-09-30T10:54:32;20.90;99.90
19970;DHT22;10146;47.754;9.566;2023-09-30T10:56:59;21.00;99.90
19970;DHT22;10146;47.754;9.566;2023-09-30T10:59:26;20.90;99.90
19970;DHT22;10146;47.754;9.566;2023-09-30T11:01:53;21.00;99.90
19970;DHT22;10146;47.754;9.566;2023-09-30T11:04:18;21.00;99.90
19970;DHT22;10146;47.754;9.566;2023-09-30T11:06:45;21.00;99.90
19970;DHT22;10146;47.754;9.566;2023-09-30T11:09:16;21.10;99.90
19970;DHT22;10146;47.754;9.566;2023-09-30T11:11:43;21.20;99.90
19970;DHT22;10146;47.754;9.566;2023-09-30T11:14:31;21.20;99.90
19970;DHT22;10146;47.754;9.566;2023-09-30T11:17:01;21.30;99.90
19970;DHT22;10146;47.754;9.566;2023-09-30T11:19:35;21.30;99.90
19970;DHT22;10146;47.754;9.566;2023-09-30T11:22:02;21.30;99.90
19970;DHT22;10146;47.754;9.566;2023-09-30T11:24:28;21.20;99.90
19970;DHT22;10146;47.754;9.566;2023-09-30T11:26:55;21.20;99.90
19970;DHT22;10146;47.754;9.566;2023-09-30T11:29:23;21.30;99.90
19970;DHT22;10146;47.754;9.566;2023-09-30T11:31:50;21.30;99.90
19970;DHT22;10146;47.754;9.566;2023-09-30T11:34:19;21.30;99.90
19970;DHT22;10146;47.754;9.566;2023-09-30T11:36:52;21.40;99.90
19970;DHT22;10146;47.754;9.566;2023-09-30T11:39:25;21.40;99.90
19970;DHT22;10146;47.754;9.566;2023-09-30T11:41:51;21.50;99.90
19970;DHT22;10146;47.754;9.566;2023-09-30T11:44:18;21.50;99.90
19970;DHT22;10146;47.754;9.566;2023-09-30T11:46:58;21.60;99.90
19970;DHT22;10146;47.754;9.566;2023-09-30T11:49:37;21.80;99.90
19970;DHT22;10146;47.754;9.566;2023-09-30T11:52:10;21.80;99.90
19970;DHT22;10146;47.754;9.566;2023-09-30T11:54:37;21.80;99.90
19970;DHT22;10146;47.754;9.566;2023-09-30T11:57:05;21.90;99.90
19970;DHT22;10146;47.754;9.566;2023-09-30T11:59:31;21.90;99.90
19970;DHT22;10146;47.754;9.566;2023-09-30T12:01:57;21.90;99.90
19970;DHT22;10146;47.754;9.566;2023-09-30T12:04:24;21.90;99.90
19970;DHT22;10146;47.754;9.566;2023-09-30T12:06:50;21.90;99.90
19970;DHT22;10146;47.754;9.566;2023-09-30T12:09:16;21.90;99.90
19970;DHT22;10146;47.754;9.566;2023-09-30T12:11:42;22.00;99.90
19970;DHT22;10146;47.754;9.566;2023-09-30T12:14:12;22.30;99.90
19970;DHT22;10146;47.754;9.566;2023-09-30T12:16:38;22.30;99.90
19970;DHT22;10146;47.754;9.566;2023-09-30T12:19:04;22.60;99.90
19970;DHT22;10146;47.754;9.566;2023-09-30T12:21:31;22.80;99.90
19970;DHT22;10146;47.754;9.566;2023-09-30T12:23:57;22.90;99.90
19970;DHT22;10146;47.754;9.566;2023-09-30T12:26:23;22.90;99.90
19970;DHT22;10146;47.754;9.566;2023-09-30T12:28:49;22.90;99.90
19970;DHT22;10146;47.754;9.566;2023-09-30T12:31:16;22.80;99.90
19970;DHT22;10146;47.754;9.566;2023-09-30T12:33:41;22.40;99.90
19970;DHT22;10146;47.754;9.566;2023-09-30T12:36:07;22.40;99.90
19970;DHT22;10146;47.754;9.566;2023-09-30T12:38:38;22.50;99.90
19970;DHT22;10146;47.754;9.566;2023-09-30T12:41:03;22.50;99.90
19970;DHT22;10146;47.754;9.566;2023-09-30T12:43:29;22.60;99.90
19970;DHT22;10146;47.754;9.566;2023-09-30T12:45:55;22.80;99.90
19970;DHT22;10146;47.754;9.566;2023-09-30T12:48:21;22.80;99.90
19970;DHT22;10146;47.754;9.566;2023-09-30T12:50:46;22.90;99.90
19970;DHT22;10146;47.754;9.566;2023-09-30T12:53:14;23.10;99.90
19970;DHT22;10146;47.754;9.566;2023-09-30T12:55:39;23.20;99.90
19970;DHT22;10146;47.754;9.566;2023-09-30T12:58:05;23.10;99.90
19970;DHT22;10146;47.754;9.566;2023-09-30T13:00:31;23.10;99.90
19970;DHT22;10146;47.754;9.566;2023-09-30T13:02:58;23.20;99.90
19970;DHT22;10146;47.754;9.566;2023-09-30T13:05:24;23.20;99.90
19970;DHT22;10146;47.754;9.566;2023-09-30T13:07:50;23.40;99.90
19970;DHT22;10146;47.754;9.566;2023-09-30T13:10:18;23.60;99.90
19970;DHT22;10146;47.754;9.566;2023-09-30T13:12:44;23.70;99.90
19970;DHT22;10146;47.754;9.566;2023-09-30T13:15:10;23.70;99.90
19970;DHT22;10146;47.754;9.566;2023-09-30T13:17:35;23.70;99.90
19970;DHT22;10146;47.754;9.566;2023-09-30T13:20:01;23.70;99.90
19970;DHT22;10146;47.754;9.566;2023-09-30T13:22:30;23.80;99.90
19970;DHT22;10146;47.754;9.566;2023-09-30T13:24:57;23.80;99.90
19970;DHT22;10146;47.754;9.566;2023-09-30T13:27:25;23.40;99.90
19970;DHT22;10146;47.754;9.566;2023-09-30T13:29:51;23.30;99.90
19970;DHT22;10146;47.754;9.566;2023-09-30T13:32:20;23.40;99.90
19970;DHT22;10146;47.754;9.566;2023-09-30T13:34:45;23.40;99.90
19970;DHT22;10146;47.754;9.566;2023-09-30T13:37:11;23.40;99.90
19970;DHT22;10146;47.754;9.566;2023-09-30T13:39:36;23.70;99.90
19970;DHT22;10146;47.754;9.566;2023-09-30T13:42:03;23.70;99.90
19970;DHT22;10146;47.754;9.566;2023-09-30T13:44:29;23.90;99.90
19970;DHT22;10146;47.754;9.566;2023-09-30T13:46:54;23.80;99.90
19970;DHT22;10146;47.754;9.566;2023-09-30T13:49:20;23.50;99.90
19970;DHT22;10146;47.754;9.566;2023-09-30T13:51:46;23.60;99.90
19970;DHT22;10146;47.754;9.566;2023-09-30T13:54:11;23.70;99.90
19970;DHT22;10146;47.754;9.566;2023-09-30T13:56:37;23.50;99.90
19970;DHT22;10146;47.754;9.566;2023-09-30T13:59:02;23.40;99.90
19970;DHT22;10146;47.754;9.566;2023-09-30T14:01:28;23.50;99.90
19970;DHT22;10146;47.754;9.566;2023-09-30T14:03:54;23.50;99.90
19970;DHT22;10146;47.754;9.566;2023-09-30T14:06:21;23.50;99.90
19970;DHT22;10146;47.754;9.566;2023-09-30T14:08:47;23.70;99.90
19970;DHT22;10146;47.754;9.566;2023-09-30T14:11:12;23.70;99.90
19970;DHT22;10146;47.754;9.566;2023-09-30T14:13:38;23.80;99.90
19970;DHT22;10146;47.754;9.566;2023-09-30T14:16:08;23.60;99.90
19970;DHT22;10146;47.754;9.566;2023-09-30T14:18:33;23.60;99.90
19970;DHT22;10146;47.754;9.566;2023-09-30T14:21:02;23.50;99.90
19970;DHT22;10146;47.754;9.566;2023-09-30T14:23:27;23.50;99.90
19970;DHT22;10146;47.754;9.566;2023-09-30T14:25:54;23.60;99.90
19970;DHT22;10146;47.754;9.566;2023-09-30T14:28:23;23.50;99.90
19970;DHT22;10146;47.754;9.566;2023-09-30T14:30:48;23.50;99.90
19970;DHT22;10146;47.754;9.566;2023-09-30T14:33:16;23.70;99.90
19970;DHT22;10146;47.754;9.566;2023-09-30T14:35:42;23.80;99.90
19970;DHT22;10146;47.754;9.566;2023-09-30T14:38:11;23.80;99.90
19970;DHT22;10146;47.754;9.566;2023-09-30T14:40:38;23.80;99.90
19970;DHT22;10146;47.754;9.566;2023-09-30T14:43:07;23.60;99.90
19970;DHT22;10146;47.754;9.566;2023-09-30T14:45:37;23.40;99.90
19970;DHT22;10146;47.754;9.566;2023-09-30T14:48:05;23.40;99.90
19970;DHT22;10146;47.754;9.566;2023-09-30T14:50:31;23.30;99.90
19970;DHT22;10146;47.754;9.566;2023-09-30T14:52:56;23.10;99.90
19970;DHT22;10146;47.754;9.566;2023-09-30T14:55:22;22.90;99.90
19970;DHT22;10146;47.754;9.566;2023-09-30T14:57:47;22.80;99.90
19970;DHT22;10146;47.754;9.566;2023-09-30T15:00:13;22.80;99.90
19970;DHT22;10146;47.754;9.566;2023-09-30T15:02:39;22.90;99.90
19970;DHT22;10146;47.754;9.566;2023-09-30T15:05:06;22.80;99.90
19970;DHT22;10146;47.754;9.566;2023-09-30T15:07:32;22.50;99.90
19970;DHT22;10146;47.754;9.566;2023-09-30T15:09:57;22.50;99.90
19970;DHT22;10146;47.754;9.566;2023-09-30T15:12:23;22.50;99.90
19970;DHT22;10146;47.754;9.566;2023-09-30T15:14:49;22.50;99.90
19970;DHT22;10146;47.754;9.566;2023-09-30T15:17:14;22.60;99.90
19970;DHT22;10146;47.754;9.566;2023-09-30T15:19:40;22.50;99.90
19970;DHT22;10146;47.754;9.566;2023-09-30T15:22:06;22.50;99.90
19970;DHT22;10146;47.754;9.566;2023-09-30T15:24:31;22.50;99.90
19970;DHT22;10146;47.754;9.566;2023-09-30T15:26:57;22.40;99.90
19970;DHT22;10146;47.754;9.566;2023-09-30T15:29:22;22.40;99.90
19970;DHT22;10146;47.754;9.566;2023-09-30T15:31:48;22.30;99.90
19970;DHT22;10146;47.754;9.566;2023-09-30T15:34:13;22.30;99.90
19970;DHT22;10146;47.754;9.566;2023-09-30T15:36:39;22.30;99.90
19970;DHT22;10146;47.754;9.566;2023-09-30T15:39:04;22.30;99.90
19970;DHT22;10146;47.754;9.566;2023-09-30T15:41:31;22.20;99.90
19970;DHT22;10146;47.754;9.566;2023-09-30T15:44:00;22.10;99.90
19970;DHT22;10146;47.754;9.566;2023-09-30T15:46:26;22.00;99.90
19970;DHT22;10146;47.754;9.566;2023-09-30T15:48:51;21.80;99.90
19970;DHT22;10146;47.754;9.566;2023-09-30T15:51:17;21.80;99.90